Detalii statie TRANSAVIA GRUP [00001CF7]

Toti senzorii

Date Temperatura solului [C]Precipitatii [mm]Voltaj baterie [mV]HC Air temperature [C]HC Relative humidity [%]Punctul de roua [C]
medieminmaxsumaultimamedieminmaxmediemediemin
2017-12-10 21:00:00 2.3 2.3 2.4 0 6874 -4.87 -5.57 -3.93 100 -4.7 -5.4
2017-12-10 22:00:00 2.2 2.1 2.3 0 6854 -5.65 -6.06 -5.35 100 -5.5 -5.9
2017-12-10 23:00:00 2.1 2.1 2.2 0 6834 -4.33 -5.48 -3.47 100 -4.1 -5.3
2017-12-11 00:00:00 2 2 2.2 0 6826 -3.32 -3.52 -3.16 50 -1.6 0
2017-12-11 01:00:00 2 1.9 2.1 0 6826 -3.03 -3.25 -2.83 0 0 0
2017-12-11 02:00:00 1.9 1.9 2.1 0 6826 -2.73 -2.88 -2.61 0 0 0
2017-12-11 03:00:00 1.9 1.8 2 0 6816 -2.48 -2.63 -2.32 0 0 0
2017-12-11 04:00:00 1.9 1.9 1.9 0 6806 -2.65 -2.7 -2.61 83.33 -2 0
2017-12-11 05:00:00 1.9 1.8 2 0 6806 -2.72 -2.8 -2.67 100 -2.5 -2.7
2017-12-11 06:00:00 1.9 1.8 2 0 6796 -2.18 -2.6 -1.93 100 -2 -2.5
2017-12-11 07:00:00 1.8 1.8 2 0 6806 -1.38 -1.85 -1.06 100 -1.2 -1.7
2017-12-11 08:00:00 1.8 1.7 2 0 6806 -0.85 -1.05 -0.71 100 -0.7 -0.9
2017-12-11 09:00:00 1.9 1.8 2 0 6844 -0.55 -0.69 -0.21 100 -0.4 -0.5
2017-12-11 10:00:00 1.9 1.9 2 0 7060 0.08 -0.17 0.36 100 0.1 0
2017-12-11 11:00:00 1.9 1.8 2.1 0 7098 0.67 0.54 0.77 100 0.6 0.5
2017-12-11 12:00:00 2 1.9 2.2 0 7216 1.26 0.81 1.83 100 1.2 0.8
2017-12-11 13:00:00 2.1 2.1 2.2 0.2 7324 2.68 1.29 3.7 99.94 2.6 1.2
2017-12-11 14:00:00 2.2 2.1 2.4 0.2 7324 4.63 3.56 6.05 72.46 0
2017-12-11 15:00:00 2.3 2.2 2.5 0 7324 6 5.65 6.3 77.94 4 0
2017-12-11 16:00:00 2.4 2.2 2.5 0 7118 4.92 4.19 5.96 98.9 4.7 4.1
2017-12-11 17:00:00 2.4 2.3 2.5 0 7000 2.84 1.6 3.8 100 2.8 1.6
2017-12-11 18:00:00 2.5 2.5 2.6 0 6952 0.53 -0.46 2.21 100 0.5 -0.3
2017-12-11 19:00:00 2.4 2.3 2.6 0 6914 -0.56 -0.72 -0.36 100 -0.4 -0.6
2017-12-11 20:00:00 2.3 2.3 2.4 0 6894 -0.65 -1.02 -0.01 100 -0.5 -0.9
2017-12-11 21:00:00 2.3 2.3 2.5 0 6874 -0.73 -1.2 -0.27 100 -0.6 -1.1
2017-12-11 22:00:00 2.2 2.2 2.3 0 6884 0.03 -0.54 0.87 91.66 0
2017-12-11 23:00:00 2.2 2.1 2.3 0 6864 -0.81 -1.38 -0.32 91.66 0
2017-12-12 00:00:00 2.2 2.1 2.4 0 6844 -1.27 -1.56 -0.9 0 0 0
2017-12-12 01:00:00 2.1 2 2.2 0 6854 -0.82 -1.63 -0.19 58.33 0
2017-12-12 02:00:00 2.1 1.9 2.2 0 6844 -1.08 -1.27 -0.94 17.23 0
2017-12-12 03:00:00 2.1 2 2.2 0 6834 -1.49 -2.03 -1.18 0 0 0
2017-12-12 04:00:00 2 1.9 2.1 0 6826 -1.69 -2.16 -1.39 0 0 0
2017-12-12 05:00:00 2 1.9 2.4 0 6834 -1.66 -2.22 -1.17 0 0 0
2017-12-12 06:00:00 1.9 1.9 2.1 0 6834 -1.67 -2.25 -0.73 0 0 0
2017-12-12 07:00:00 1.9 1.8 2 0 6834 -1.91 -2.43 -1.37 0 0 0
2017-12-12 08:00:00 1.9 1.8 2 0 6844 -2.15 -2.56 -1.91 0 0 0
2017-12-12 09:00:00 1.9 1.8 2 0 6874 -1.91 -2.39 -1.61 0 0 0
2017-12-12 10:00:00 1.8 1.7 1.9 0 7020 -0.82 -1.58 -0.05 0 0 0
2017-12-12 11:00:00 1.8 1.8 1.9 0.2 7324 1.02 0.12 1.98 0 0 0
2017-12-12 12:00:00 1.8 1.8 2 0 7332 4.27 2.37 6.09 0 0 0
2017-12-12 13:00:00 2 1.9 2.2 0 7342 7.72 6.2 9.59 0 0 0
2017-12-12 14:00:00 2.2 2.1 2.3 0 7342 10.77 9.66 11.45 0 0 0
2017-12-12 15:00:00 2.3 2.3 2.5 0 7324 11.02 10.47 11.6 0 0 0
2017-12-12 16:00:00 2.4 2.2 2.6 0 7108 10.51 9.79 12.36 0 0 0
2017-12-12 17:00:00 2.5 2.4 2.7 0 7030 7.11 4.73 9.44 0 0 0
2017-12-12 18:00:00 2.6 2.5 2.7 0 6972 3.22 2.06 4.44 0.97 0
2017-12-12 19:00:00 2.5 2.4 2.6 0 6922 1.14 0.58 2.01 0 0 0
2017-12-12 20:00:00 2.4 2.3 2.6 0 6894 0.51 0 1.88 0 0 0